sensor_id;sensor_type;location;lat;lon;timestamp;temperature;humidity
5358;DHT22;2702;51.014;7.170;2022-12-08T00:02:23;3.80;99.90
5358;DHT22;2702;51.014;7.170;2022-12-08T00:04:49;3.90;99.90
5358;DHT22;2702;51.014;7.170;2022-12-08T00:07:33;3.90;99.90
5358;DHT22;2702;51.014;7.170;2022-12-08T00:10:17;3.80;99.90
5358;DHT22;2702;51.014;7.170;2022-12-08T00:12:43;3.80;99.90
5358;DHT22;2702;51.014;7.170;2022-12-08T00:15:09;3.90;99.90
5358;DHT22;2702;51.014;7.170;2022-12-08T00:17:34;4.00;99.90
5358;DHT22;2702;51.014;7.170;2022-12-08T00:20:00;4.00;99.90
5358;DHT22;2702;51.014;7.170;2022-12-08T00:22:26;3.90;99.90
5358;DHT22;2702;51.014;7.170;2022-12-08T00:24:53;3.90;99.90
5358;DHT22;2702;51.014;7.170;2022-12-08T00:27:19;3.80;99.90
5358;DHT22;2702;51.014;7.170;2022-12-08T00:29:45;3.80;99.90
5358;DHT22;2702;51.014;7.170;2022-12-08T00:32:11;3.80;99.90
5358;DHT22;2702;51.014;7.170;2022-12-08T00:34:36;3.70;99.90
5358;DHT22;2702;51.014;7.170;2022-12-08T00:37:03;3.60;99.90
5358;DHT22;2702;51.014;7.170;2022-12-08T00:39:29;3.60;99.90
5358;DHT22;2702;51.014;7.170;2022-12-08T00:41:55;3.60;99.90
5358;DHT22;2702;51.014;7.170;2022-12-08T00:44:40;3.60;99.90
5358;DHT22;2702;51.014;7.170;2022-12-08T00:47:06;3.60;99.90
5358;DHT22;2702;51.014;7.170;2022-12-08T00:49:32;3.50;99.90
5358;DHT22;2702;51.014;7.170;2022-12-08T00:51:58;3.60;99.90
5358;DHT22;2702;51.014;7.170;2022-12-08T00:54:24;3.60;99.90
5358;DHT22;2702;51.014;7.170;2022-12-08T00:56:49;3.60;99.90
5358;DHT22;2702;51.014;7.170;2022-12-08T00:59:15;3.60;99.90
5358;DHT22;2702;51.014;7.170;2022-12-08T01:01:44;3.60;99.90
5358;DHT22;2702;51.014;7.170;2022-12-08T01:04:14;3.50;99.90
5358;DHT22;2702;51.014;7.170;2022-12-08T01:06:41;3.50;99.90
5358;DHT22;2702;51.014;7.170;2022-12-08T01:09:08;3.60;99.90
5358;DHT22;2702;51.014;7.170;2022-12-08T01:11:34;3.60;99.90
5358;DHT22;2702;51.014;7.170;2022-12-08T01:14:01;3.70;99.90
5358;DHT22;2702;51.014;7.170;2022-12-08T01:16:31;3.70;99.90
5358;DHT22;2702;51.014;7.170;2022-12-08T01:18:58;3.70;99.90
5358;DHT22;2702;51.014;7.170;2022-12-08T01:21:25;3.60;99.90
5358;DHT22;2702;51.014;7.170;2022-12-08T01:23:51;3.70;99.90
5358;DHT22;2702;51.014;7.170;2022-12-08T01:26:18;3.70;99.90
5358;DHT22;2702;51.014;7.170;2022-12-08T01:28:45;3.80;99.90
5358;DHT22;2702;51.014;7.170;2022-12-08T01:31:14;3.70;99.90
5358;DHT22;2702;51.014;7.170;2022-12-08T01:33:40;3.60;99.90
5358;DHT22;2702;51.014;7.170;2022-12-08T01:36:08;3.60;99.90
5358;DHT22;2702;51.014;7.170;2022-12-08T01:38:34;3.60;99.90
5358;DHT22;2702;51.014;7.170;2022-12-08T01:41:00;3.50;99.90
5358;DHT22;2702;51.014;7.170;2022-12-08T01:44:01;3.50;99.90
5358;DHT22;2702;51.014;7.170;2022-12-08T01:46:29;3.60;99.90
5358;DHT22;2702;51.014;7.170;2022-12-08T01:51:32;3.50;99.90
5358;DHT22;2702;51.014;7.170;2022-12-08T01:54:01;3.50;99.90
5358;DHT22;2702;51.014;7.170;2022-12-08T01:56:40;3.40;99.90
5358;DHT22;2702;51.014;7.170;2022-12-08T01:59:06;3.40;99.90
5358;DHT22;2702;51.014;7.170;2022-12-08T02:01:32;3.40;99.90
5358;DHT22;2702;51.014;7.170;2022-12-08T02:04:00;3.40;99.90
5358;DHT22;2702;51.014;7.170;2022-12-08T02:06:29;3.40;99.90
5358;DHT22;2702;51.014;7.170;2022-12-08T02:08:57;3.40;99.90
5358;DHT22;2702;51.014;7.170;2022-12-08T02:11:24;3.50;99.90
5358;DHT22;2702;51.014;7.170;2022-12-08T02:13:52;3.50;99.90
5358;DHT22;2702;51.014;7.170;2022-12-08T02:16:56;3.60;99.90
5358;DHT22;2702;51.014;7.170;2022-12-08T02:19:49;3.50;99.90
5358;DHT22;2702;51.014;7.170;2022-12-08T02:23:18;3.50;99.90
5358;DHT22;2702;51.014;7.170;2022-12-08T02:25:54;3.40;99.90
5358;DHT22;2702;51.014;7.170;2022-12-08T02:28:44;3.50;99.90
5358;DHT22;2702;51.014;7.170;2022-12-08T02:42:16;3.40;99.90
5358;DHT22;2702;51.014;7.170;2022-12-08T02:45:08;3.50;99.90
5358;DHT22;2702;51.014;7.170;2022-12-08T02:47:32;3.50;99.90
5358;DHT22;2702;51.014;7.170;2022-12-08T02:49:59;3.50;99.90
5358;DHT22;2702;51.014;7.170;2022-12-08T02:55:23;3.50;99.90
5358;DHT22;2702;51.014;7.170;2022-12-08T03:03:47;3.50;99.90
5358;DHT22;2702;51.014;7.170;2022-12-08T03:06:29;3.60;99.90
5358;DHT22;2702;51.014;7.170;2022-12-08T03:09:38;3.50;99.90
5358;DHT22;2702;51.014;7.170;2022-12-08T03:14:45;3.40;99.90
5358;DHT22;2702;51.014;7.170;2022-12-08T03:17:14;3.50;99.90
5358;DHT22;2702;51.014;7.170;2022-12-08T03:19:42;3.50;99.90
5358;DHT22;2702;51.014;7.170;2022-12-08T03:22:11;3.50;99.90
5358;DHT22;2702;51.014;7.170;2022-12-08T03:24:42;3.50;99.90
5358;DHT22;2702;51.014;7.170;2022-12-08T03:27:20;3.40;99.90
5358;DHT22;2702;51.014;7.170;2022-12-08T03:29:47;3.50;99.90
5358;DHT22;2702;51.014;7.170;2022-12-08T03:32:34;3.40;99.90
5358;DHT22;2702;51.014;7.170;2022-12-08T03:35:07;3.40;99.90
5358;DHT22;2702;51.014;7.170;2022-12-08T03:37:35;3.40;99.90
5358;DHT22;2702;51.014;7.170;2022-12-08T03:40:04;3.40;99.90
5358;DHT22;2702;51.014;7.170;2022-12-08T03:42:30;3.30;99.90
5358;DHT22;2702;51.014;7.170;2022-12-08T03:44:56;3.20;99.90
5358;DHT22;2702;51.014;7.170;2022-12-08T03:47:21;3.30;99.90
5358;DHT22;2702;51.014;7.170;2022-12-08T03:49:47;3.30;99.90
5358;DHT22;2702;51.014;7.170;2022-12-08T03:52:13;3.30;99.90
5358;DHT22;2702;51.014;7.170;2022-12-08T03:54:39;3.40;99.90
5358;DHT22;2702;51.014;7.170;2022-12-08T03:57:05;3.20;99.90
5358;DHT22;2702;51.014;7.170;2022-12-08T03:59:31;3.20;99.90
5358;DHT22;2702;51.014;7.170;2022-12-08T04:01:57;3.20;99.90
5358;DHT22;2702;51.014;7.170;2022-12-08T04:04:23;3.20;99.90
5358;DHT22;2702;51.014;7.170;2022-12-08T04:06:49;3.20;99.90
5358;DHT22;2702;51.014;7.170;2022-12-08T04:09:16;3.30;99.90
5358;DHT22;2702;51.014;7.170;2022-12-08T04:11:42;3.20;99.90
5358;DHT22;2702;51.014;7.170;2022-12-08T04:14:07;3.20;99.90
5358;DHT22;2702;51.014;7.170;2022-12-08T04:16:33;3.20;99.90
5358;DHT22;2702;51.014;7.170;2022-12-08T04:18:59;3.20;99.90
5358;DHT22;2702;51.014;7.170;2022-12-08T04:21:26;3.10;99.90
5358;DHT22;2702;51.014;7.170;2022-12-08T04:23:52;3.10;99.90
5358;DHT22;2702;51.014;7.170;2022-12-08T04:26:18;3.20;99.90
5358;DHT22;2702;51.014;7.170;2022-12-08T04:28:44;3.20;99.90
5358;DHT22;2702;51.014;7.170;2022-12-08T04:31:10;3.20;99.90
5358;DHT22;2702;51.014;7.170;2022-12-08T04:33:36;3.20;99.90
5358;DHT22;2702;51.014;7.170;2022-12-08T04:36:03;3.30;99.90
5358;DHT22;2702;51.014;7.170;2022-12-08T04:38:29;3.30;99.90
5358;DHT22;2702;51.014;7.170;2022-12-08T04:40:56;3.30;99.90
5358;DHT22;2702;51.014;7.170;2022-12-08T04:43:21;3.40;99.90
5358;DHT22;2702;51.014;7.170;2022-12-08T04:45:47;3.50;99.90
5358;DHT22;2702;51.014;7.170;2022-12-08T04:48:13;3.50;99.90
5358;DHT22;2702;51.014;7.170;2022-12-08T04:50:41;3.50;99.90
5358;DHT22;2702;51.014;7.170;2022-12-08T04:53:08;3.50;99.90
5358;DHT22;2702;51.014;7.170;2022-12-08T04:55:36;3.40;99.90
5358;DHT22;2702;51.014;7.170;2022-12-08T04:58:02;3.40;99.90
5358;DHT22;2702;51.014;7.170;2022-12-08T05:00:28;3.40;99.90
5358;DHT22;2702;51.014;7.170;2022-12-08T05:02:54;3.30;99.90
5358;DHT22;2702;51.014;7.170;2022-12-08T05:05:20;3.30;99.90
5358;DHT22;2702;51.014;7.170;2022-12-08T05:07:45;3.40;99.90
5358;DHT22;2702;51.014;7.170;2022-12-08T05:10:11;3.40;99.90
5358;DHT22;2702;51.014;7.170;2022-12-08T05:12:37;3.20;99.90
5358;DHT22;2702;51.014;7.170;2022-12-08T05:15:03;3.30;99.90
5358;DHT22;2702;51.014;7.170;2022-12-08T05:17:29;3.30;99.90
5358;DHT22;2702;51.014;7.170;2022-12-08T05:19:55;3.20;99.90
5358;DHT22;2702;51.014;7.170;2022-12-08T05:22:21;3.30;99.90
5358;DHT22;2702;51.014;7.170;2022-12-08T05:24:47;3.20;99.90
5358;DHT22;2702;51.014;7.170;2022-12-08T05:27:13;3.20;99.90
5358;DHT22;2702;51.014;7.170;2022-12-08T05:29:38;3.30;99.90
5358;DHT22;2702;51.014;7.170;2022-12-08T05:32:04;3.30;99.90
5358;DHT22;2702;51.014;7.170;2022-12-08T05:34:30;3.40;99.90
5358;DHT22;2702;51.014;7.170;2022-12-08T05:36:56;3.40;99.90
5358;DHT22;2702;51.014;7.170;2022-12-08T05:39:22;3.40;99.90
5358;DHT22;2702;51.014;7.170;2022-12-08T05:41:48;3.40;99.90
5358;DHT22;2702;51.014;7.170;2022-12-08T05:44:14;3.30;99.90
5358;DHT22;2702;51.014;7.170;2022-12-08T05:46:39;3.40;99.90
5358;DHT22;2702;51.014;7.170;2022-12-08T05:49:05;3.50;99.90
5358;DHT22;2702;51.014;7.170;2022-12-08T05:51:31;3.40;99.90
5358;DHT22;2702;51.014;7.170;2022-12-08T05:53:57;3.40;99.90
5358;DHT22;2702;51.014;7.170;2022-12-08T05:56:24;3.40;99.90
5358;DHT22;2702;51.014;7.170;2022-12-08T05:58:50;3.30;99.90
5358;DHT22;2702;51.014;7.170;2022-12-08T06:01:30;3.30;99.90
5358;DHT22;2702;51.014;7.170;2022-12-08T06:03:58;3.30;99.90
5358;DHT22;2702;51.014;7.170;2022-12-08T06:06:24;3.30;99.90
5358;DHT22;2702;51.014;7.170;2022-12-08T06:08:50;3.30;99.90
5358;DHT22;2702;51.014;7.170;2022-12-08T06:11:24;3.30;99.90
5358;DHT22;2702;51.014;7.170;2022-12-08T06:13:51;3.30;99.90
5358;DHT22;2702;51.014;7.170;2022-12-08T06:16:18;3.30;99.90
5358;DHT22;2702;51.014;7.170;2022-12-08T06:18:44;3.30;99.90
5358;DHT22;2702;51.014;7.170;2022-12-08T06:21:12;3.20;99.90
5358;DHT22;2702;51.014;7.170;2022-12-08T06:23:39;3.30;99.90
5358;DHT22;2702;51.014;7.170;2022-12-08T06:26:08;3.20;99.90
5358;DHT22;2702;51.014;7.170;2022-12-08T06:28:35;3.30;99.90
5358;DHT22;2702;51.014;7.170;2022-12-08T06:31:31;3.40;99.90
5358;DHT22;2702;51.014;7.170;2022-12-08T06:33:57;3.40;99.90
5358;DHT22;2702;51.014;7.170;2022-12-08T06:36:25;3.40;99.90
5358;DHT22;2702;51.014;7.170;2022-12-08T06:38:51;3.30;99.90
5358;DHT22;2702;51.014;7.170;2022-12-08T06:41:17;3.20;99.90
5358;DHT22;2702;51.014;7.170;2022-12-08T06:43:43;3.20;99.90
5358;DHT22;2702;51.014;7.170;2022-12-08T06:46:13;3.20;99.90
5358;DHT22;2702;51.014;7.170;2022-12-08T06:48:39;3.20;99.90
5358;DHT22;2702;51.014;7.170;2022-12-08T06:51:11;3.10;99.90
5358;DHT22;2702;51.014;7.170;2022-12-08T06:53:37;3.20;99.90
5358;DHT22;2702;51.014;7.170;2022-12-08T06:56:06;3.10;99.90
5358;DHT22;2702;51.014;7.170;2022-12-08T06:58:32;3.00;99.90
5358;DHT22;2702;51.014;7.170;2022-12-08T07:01:07;3.00;99.90
5358;DHT22;2702;51.014;7.170;2022-12-08T07:03:34;2.90;99.90
5358;DHT22;2702;51.014;7.170;2022-12-08T07:06:00;3.00;99.90
5358;DHT22;2702;51.014;7.170;2022-12-08T07:08:25;2.90;99.90
5358;DHT22;2702;51.014;7.170;2022-12-08T07:10:51;2.90;99.90
5358;DHT22;2702;51.014;7.170;2022-12-08T07:13:17;3.00;99.90
5358;DHT22;2702;51.014;7.170;2022-12-08T07:15:43;3.10;99.90
5358;DHT22;2702;51.014;7.170;2022-12-08T07:18:09;3.00;99.90
5358;DHT22;2702;51.014;7.170;2022-12-08T07:20:35;3.10;99.90
5358;DHT22;2702;51.014;7.170;2022-12-08T07:23:00;3.20;99.90
5358;DHT22;2702;51.014;7.170;2022-12-08T07:25:26;3.20;99.90
5358;DHT22;2702;51.014;7.170;2022-12-08T07:27:52;3.10;99.90
5358;DHT22;2702;51.014;7.170;2022-12-08T07:30:18;3.10;99.90
5358;DHT22;2702;51.014;7.170;2022-12-08T07:32:44;3.00;99.90
5358;DHT22;2702;51.014;7.170;2022-12-08T07:35:10;3.10;99.90
5358;DHT22;2702;51.014;7.170;2022-12-08T07:37:37;3.10;99.90
5358;DHT22;2702;51.014;7.170;2022-12-08T07:40:04;3.10;99.90
5358;DHT22;2702;51.014;7.170;2022-12-08T07:42:31;3.10;99.90
5358;DHT22;2702;51.014;7.170;2022-12-08T07:44:57;3.10;99.90
5358;DHT22;2702;51.014;7.170;2022-12-08T07:47:24;3.00;99.90
5358;DHT22;2702;51.014;7.170;2022-12-08T07:49:49;3.00;99.90
5358;DHT22;2702;51.014;7.170;2022-12-08T07:52:15;3.00;99.90
5358;DHT22;2702;51.014;7.170;2022-12-08T07:54:41;3.00;99.90
5358;DHT22;2702;51.014;7.170;2022-12-08T07:57:07;2.90;99.90
5358;DHT22;2702;51.014;7.170;2022-12-08T07:59:34;3.00;99.90
5358;DHT22;2702;51.014;7.170;2022-12-08T08:02:00;3.00;99.90
5358;DHT22;2702;51.014;7.170;2022-12-08T08:04:26;2.90;99.90
5358;DHT22;2702;51.014;7.170;2022-12-08T08:06:52;2.90;99.90
5358;DHT22;2702;51.014;7.170;2022-12-08T08:09:18;2.90;99.90
5358;DHT22;2702;51.014;7.170;2022-12-08T08:11:44;2.90;99.90
5358;DHT22;2702;51.014;7.170;2022-12-08T08:14:10;3.00;99.90
5358;DHT22;2702;51.014;7.170;2022-12-08T08:16:36;3.00;99.90
5358;DHT22;2702;51.014;7.170;2022-12-08T08:19:02;3.00;99.90
5358;DHT22;2702;51.014;7.170;2022-12-08T08:21:28;2.90;99.90
5358;DHT22;2702;51.014;7.170;2022-12-08T08:23:53;2.90;99.90
5358;DHT22;2702;51.014;7.170;2022-12-08T08:26:19;2.80;99.90
5358;DHT22;2702;51.014;7.170;2022-12-08T08:28:45;2.70;99.90
5358;DHT22;2702;51.014;7.170;2022-12-08T08:31:12;2.70;99.90
5358;DHT22;2702;51.014;7.170;2022-12-08T08:33:38;2.70;99.90
5358;DHT22;2702;51.014;7.170;2022-12-08T08:36:08;2.50;99.90
5358;DHT22;2702;51.014;7.170;2022-12-08T08:38:35;2.50;99.90
5358;DHT22;2702;51.014;7.170;2022-12-08T08:41:08;2.50;99.90
5358;DHT22;2702;51.014;7.170;2022-12-08T08:43:35;2.50;99.90
5358;DHT22;2702;51.014;7.170;2022-12-08T08:46:02;2.50;99.90
5358;DHT22;2702;51.014;7.170;2022-12-08T08:48:29;2.60;99.90
5358;DHT22;2702;51.014;7.170;2022-12-08T08:50:56;2.50;99.90
5358;DHT22;2702;51.014;7.170;2022-12-08T08:53:22;2.60;99.90
5358;DHT22;2702;51.014;7.170;2022-12-08T08:55:49;2.60;99.90
5358;DHT22;2702;51.014;7.170;2022-12-08T08:58:15;2.60;99.90
5358;DHT22;2702;51.014;7.170;2022-12-08T09:00:41;2.70;99.90
5358;DHT22;2702;51.014;7.170;2022-12-08T09:03:07;2.70;99.90
5358;DHT22;2702;51.014;7.170;2022-12-08T09:05:33;2.80;99.90
5358;DHT22;2702;51.014;7.170;2022-12-08T09:07:59;2.80;99.90
5358;DHT22;2702;51.014;7.170;2022-12-08T09:10:24;2.90;99.90
5358;DHT22;2702;51.014;7.170;2022-12-08T09:12:51;2.90;99.90
5358;DHT22;2702;51.014;7.170;2022-12-08T09:15:17;2.90;99.90
5358;DHT22;2702;51.014;7.170;2022-12-08T09:17:45;2.90;99.90
5358;DHT22;2702;51.014;7.170;2022-12-08T09:20:11;2.90;99.90
5358;DHT22;2702;51.014;7.170;2022-12-08T09:22:37;2.90;99.90
5358;DHT22;2702;51.014;7.170;2022-12-08T09:25:03;3.00;99.90
5358;DHT22;2702;51.014;7.170;2022-12-08T09:27:29;3.10;99.90
5358;DHT22;2702;51.014;7.170;2022-12-08T09:29:55;3.10;99.90
5358;DHT22;2702;51.014;7.170;2022-12-08T09:32:21;3.10;99.90
5358;DHT22;2702;51.014;7.170;2022-12-08T09:34:47;3.10;99.90
5358;DHT22;2702;51.014;7.170;2022-12-08T09:37:13;3.10;99.90
5358;DHT22;2702;51.014;7.170;2022-12-08T09:39:38;3.10;99.90
5358;DHT22;2702;51.014;7.170;2022-12-08T09:42:05;3.00;99.90
5358;DHT22;2702;51.014;7.170;2022-12-08T09:44:54;3.10;99.90
5358;DHT22;2702;51.014;7.170;2022-12-08T09:48:14;3.10;99.90
5358;DHT22;2702;51.014;7.170;2022-12-08T09:50:28;3.00;99.90
5358;DHT22;2702;51.014;7.170;2022-12-08T09:58:40;3.10;99.90
5358;DHT22;2702;51.014;7.170;2022-12-08T10:01:10;3.10;99.90
5358;DHT22;2702;51.014;7.170;2022-12-08T10:03:41;3.20;99.90
5358;DHT22;2702;51.014;7.170;2022-12-08T10:11:28;3.20;99.90
5358;DHT22;2702;51.014;7.170;2022-12-08T10:14:15;3.20;99.90
5358;DHT22;2702;51.014;7.170;2022-12-08T10:16:47;3.20;99.90
5358;DHT22;2702;51.014;7.170;2022-12-08T10:19:18;3.30;99.90
5358;DHT22;2702;51.014;7.170;2022-12-08T10:21:44;3.30;99.90
5358;DHT22;2702;51.014;7.170;2022-12-08T10:24:35;3.40;99.90
5358;DHT22;2702;51.014;7.170;2022-12-08T10:27:04;3.50;99.90
5358;DHT22;2702;51.014;7.170;2022-12-08T10:29:35;3.50;99.90
5358;DHT22;2702;51.014;7.170;2022-12-08T10:32:12;3.40;99.90
5358;DHT22;2702;51.014;7.170;2022-12-08T10:34:58;3.40;99.90
5358;DHT22;2702;51.014;7.170;2022-12-08T10:37:24;3.30;99.90
5358;DHT22;2702;51.014;7.170;2022-12-08T10:42:53;3.40;99.90
5358;DHT22;2702;51.014;7.170;2022-12-08T10:45:36;3.30;99.90
5358;DHT22;2702;51.014;7.170;2022-12-08T10:48:04;3.10;99.90
5358;DHT22;2702;51.014;7.170;2022-12-08T10:50:35;3.10;99.90
5358;DHT22;2702;51.014;7.170;2022-12-08T10:53:44;3.10;99.90
5358;DHT22;2702;51.014;7.170;2022-12-08T10:58:38;3.20;99.90
5358;DHT22;2702;51.014;7.170;2022-12-08T11:01:25;3.10;99.90
5358;DHT22;2702;51.014;7.170;2022-12-08T11:04:00;2.90;99.90
5358;DHT22;2702;51.014;7.170;2022-12-08T11:11:59;3.10;99.90
5358;DHT22;2702;51.014;7.170;2022-12-08T11:14:32;3.10;99.90
5358;DHT22;2702;51.014;7.170;2022-12-08T11:17:07;3.10;99.90
5358;DHT22;2702;51.014;7.170;2022-12-08T11:19:38;3.20;99.90
5358;DHT22;2702;51.014;7.170;2022-12-08T11:25:17;3.10;99.90
5358;DHT22;2702;51.014;7.170;2022-12-08T11:27:47;3.20;99.90
5358;DHT22;2702;51.014;7.170;2022-12-08T11:30:20;3.10;99.90
5358;DHT22;2702;51.014;7.170;2022-12-08T11:32:56;3.10;99.90
5358;DHT22;2702;51.014;7.170;2022-12-08T11:35:33;3.10;99.90
5358;DHT22;2702;51.014;7.170;2022-12-08T11:38:20;3.10;99.90
5358;DHT22;2702;51.014;7.170;2022-12-08T11:40:51;3.10;99.90
5358;DHT22;2702;51.014;7.170;2022-12-08T11:46:00;3.20;99.90
5358;DHT22;2702;51.014;7.170;2022-12-08T11:48:34;3.20;99.90
5358;DHT22;2702;51.014;7.170;2022-12-08T11:51:20;3.20;99.90
5358;DHT22;2702;51.014;7.170;2022-12-08T11:54:17;3.30;99.90
5358;DHT22;2702;51.014;7.170;2022-12-08T11:57:07;3.40;99.90
5358;DHT22;2702;51.014;7.170;2022-12-08T11:59:37;3.50;99.90
5358;DHT22;2702;51.014;7.170;2022-12-08T12:02:13;3.50;99.90
5358;DHT22;2702;51.014;7.170;2022-12-08T12:04:56;3.40;99.90
5358;DHT22;2702;51.014;7.170;2022-12-08T12:15:54;3.60;99.90
5358;DHT22;2702;51.014;7.170;2022-12-08T12:21:34;3.70;99.90
5358;DHT22;2702;51.014;7.170;2022-12-08T12:27:00;4.00;99.90
5358;DHT22;2702;51.014;7.170;2022-12-08T12:29:35;3.90;99.90
5358;DHT22;2702;51.014;7.170;2022-12-08T12:32:06;4.00;99.90
5358;DHT22;2702;51.014;7.170;2022-12-08T12:34:35;4.00;99.90
5358;DHT22;2702;51.014;7.170;2022-12-08T12:37:12;3.90;99.90
5358;DHT22;2702;51.014;7.170;2022-12-08T12:43:10;4.00;99.90
5358;DHT22;2702;51.014;7.170;2022-12-08T12:45:35;4.10;99.90
5358;DHT22;2702;51.014;7.170;2022-12-08T12:55:59;4.30;99.90
5358;DHT22;2702;51.014;7.170;2022-12-08T13:03:50;4.20;99.90
5358;DHT22;2702;51.014;7.170;2022-12-08T13:06:31;4.20;99.90
5358;DHT22;2702;51.014;7.170;2022-12-08T13:08:58;4.00;99.90
5358;DHT22;2702;51.014;7.170;2022-12-08T13:11:25;4.10;99.90
5358;DHT22;2702;51.014;7.170;2022-12-08T13:13:58;4.20;99.90
5358;DHT22;2702;51.014;7.170;2022-12-08T13:16:27;4.30;99.90
5358;DHT22;2702;51.014;7.170;2022-12-08T13:19:02;4.20;99.90
5358;DHT22;2702;51.014;7.170;2022-12-08T13:21:36;4.10;99.90
5358;DHT22;2702;51.014;7.170;2022-12-08T13:26:44;4.20;99.90
5358;DHT22;2702;51.014;7.170;2022-12-08T13:29:24;4.00;99.90
5358;DHT22;2702;51.014;7.170;2022-12-08T13:32:51;4.10;99.90
5358;DHT22;2702;51.014;7.170;2022-12-08T13:34:59;4.10;99.90
5358;DHT22;2702;51.014;7.170;2022-12-08T13:37:44;4.10;99.90
5358;DHT22;2702;51.014;7.170;2022-12-08T13:40:18;4.20;99.90
5358;DHT22;2702;51.014;7.170;2022-12-08T13:45:24;4.20;99.90
5358;DHT22;2702;51.014;7.170;2022-12-08T13:48:16;4.20;99.90
5358;DHT22;2702;51.014;7.170;2022-12-08T13:50:55;4.20;99.90
5358;DHT22;2702;51.014;7.170;2022-12-08T13:53:26;4.30;99.90
5358;DHT22;2702;51.014;7.170;2022-12-08T13:55:59;4.20;99.90
5358;DHT22;2702;51.014;7.170;2022-12-08T13:58:28;4.20;99.90
5358;DHT22;2702;51.014;7.170;2022-12-08T14:01:21;4.20;99.90
5358;DHT22;2702;51.014;7.170;2022-12-08T14:03:49;4.20;99.90
5358;DHT22;2702;51.014;7.170;2022-12-08T14:06:40;4.20;99.90
5358;DHT22;2702;51.014;7.170;2022-12-08T14:09:12;4.20;99.90
5358;DHT22;2702;51.014;7.170;2022-12-08T14:11:42;4.30;99.90
5358;DHT22;2702;51.014;7.170;2022-12-08T14:14:45;4.10;99.90
5358;DHT22;2702;51.014;7.170;2022-12-08T14:17:06;4.10;99.90
5358;DHT22;2702;51.014;7.170;2022-12-08T14:19:35;4.10;99.90
5358;DHT22;2702;51.014;7.170;2022-12-08T14:22:16;4.20;99.90
5358;DHT22;2702;51.014;7.170;2022-12-08T14:24:46;4.30;99.90
5358;DHT22;2702;51.014;7.170;2022-12-08T14:27:16;4.20;99.90
5358;DHT22;2702;51.014;7.170;2022-12-08T14:29:54;4.10;99.90
5358;DHT22;2702;51.014;7.170;2022-12-08T14:37:27;3.90;99.90
5358;DHT22;2702;51.014;7.170;2022-12-08T14:39:58;3.80;99.90
5358;DHT22;2702;51.014;7.170;2022-12-08T14:42:27;3.80;99.90
5358;DHT22;2702;51.014;7.170;2022-12-08T14:45:04;3.80;99.90
5358;DHT22;2702;51.014;7.170;2022-12-08T14:47:32;3.80;99.90
5358;DHT22;2702;51.014;7.170;2022-12-08T14:50:00;3.90;99.90
5358;DHT22;2702;51.014;7.170;2022-12-08T14:52:27;3.90;99.90
5358;DHT22;2702;51.014;7.170;2022-12-08T14:54:54;3.90;99.90
5358;DHT22;2702;51.014;7.170;2022-12-08T14:57:20;3.90;99.90
5358;DHT22;2702;51.014;7.170;2022-12-08T14:59:47;4.00;99.90
5358;DHT22;2702;51.014;7.170;2022-12-08T15:05:13;4.10;99.90
5358;DHT22;2702;51.014;7.170;2022-12-08T15:07:51;4.20;99.90
5358;DHT22;2702;51.014;7.170;2022-12-08T15:10:26;4.20;99.90
5358;DHT22;2702;51.014;7.170;2022-12-08T15:15:31;4.20;99.90
5358;DHT22;2702;51.014;7.170;2022-12-08T15:18:00;4.10;99.90
5358;DHT22;2702;51.014;7.170;2022-12-08T15:20:30;4.10;99.90
5358;DHT22;2702;51.014;7.170;2022-12-08T15:22:57;4.00;99.90
5358;DHT22;2702;51.014;7.170;2022-12-08T15:25:23;4.00;99.90
5358;DHT22;2702;51.014;7.170;2022-12-08T15:27:50;4.00;99.90
5358;DHT22;2702;51.014;7.170;2022-12-08T15:30:18;4.00;99.90
5358;DHT22;2702;51.014;7.170;2022-12-08T15:32:44;3.80;99.90
5358;DHT22;2702;51.014;7.170;2022-12-08T15:35:14;3.80;99.90
5358;DHT22;2702;51.014;7.170;2022-12-08T15:37:40;3.70;99.90
5358;DHT22;2702;51.014;7.170;2022-12-08T15:40:14;3.80;99.90
5358;DHT22;2702;51.014;7.170;2022-12-08T15:42:40;3.80;99.90
5358;DHT22;2702;51.014;7.170;2022-12-08T15:45:10;3.80;99.90
5358;DHT22;2702;51.014;7.170;2022-12-08T15:47:36;3.90;99.90
5358;DHT22;2702;51.014;7.170;2022-12-08T15:50:02;4.00;99.90
5358;DHT22;2702;51.014;7.170;2022-12-08T15:52:28;3.90;99.90
5358;DHT22;2702;51.014;7.170;2022-12-08T15:54:54;3.90;99.90
5358;DHT22;2702;51.014;7.170;2022-12-08T15:57:29;3.70;99.90
5358;DHT22;2702;51.014;7.170;2022-12-08T15:59:56;3.70;99.90
5358;DHT22;2702;51.014;7.170;2022-12-08T16:02:23;3.60;99.90
5358;DHT22;2702;51.014;7.170;2022-12-08T16:04:49;3.60;99.90
5358;DHT22;2702;51.014;7.170;2022-12-08T16:07:35;3.40;99.90
5358;DHT22;2702;51.014;7.170;2022-12-08T16:10:03;3.30;99.90
5358;DHT22;2702;51.014;7.170;2022-12-08T16:12:29;3.40;99.90
5358;DHT22;2702;51.014;7.170;2022-12-08T16:15:18;3.30;99.90
5358;DHT22;2702;51.014;7.170;2022-12-08T16:17:43;3.40;99.90
5358;DHT22;2702;51.014;7.170;2022-12-08T16:20:12;3.50;99.90
5358;DHT22;2702;51.014;7.170;2022-12-08T16:22:40;3.50;99.90
5358;DHT22;2702;51.014;7.170;2022-12-08T16:25:06;3.40;99.90
5358;DHT22;2702;51.014;7.170;2022-12-08T16:27:35;3.40;99.90
5358;DHT22;2702;51.014;7.170;2022-12-08T16:30:02;3.40;99.90
5358;DHT22;2702;51.014;7.170;2022-12-08T16:32:29;3.50;99.90
5358;DHT22;2702;51.014;7.170;2022-12-08T16:34:54;3.50;99.90
5358;DHT22;2702;51.014;7.170;2022-12-08T16:37:23;3.60;99.90
5358;DHT22;2702;51.014;7.170;2022-12-08T16:39:50;3.60;99.90
5358;DHT22;2702;51.014;7.170;2022-12-08T16:42:22;3.60;99.90
5358;DHT22;2702;51.014;7.170;2022-12-08T16:47:35;3.50;99.90
5358;DHT22;2702;51.014;7.170;2022-12-08T16:50:22;3.60;99.90
5358;DHT22;2702;51.014;7.170;2022-12-08T16:52:48;3.60;99.90
5358;DHT22;2702;51.014;7.170;2022-12-08T16:55:17;3.60;99.90
5358;DHT22;2702;51.014;7.170;2022-12-08T16:57:45;3.80;99.90
5358;DHT22;2702;51.014;7.170;2022-12-08T17:00:15;3.60;99.90
5358;DHT22;2702;51.014;7.170;2022-12-08T17:02:41;3.70;99.90
5358;DHT22;2702;51.014;7.170;2022-12-08T17:05:07;3.80;99.90
5358;DHT22;2702;51.014;7.170;2022-12-08T17:07:35;3.90;99.90
5358;DHT22;2702;51.014;7.170;2022-12-08T17:10:03;3.90;99.90
5358;DHT22;2702;51.014;7.170;2022-12-08T17:12:30;4.00;99.90
5358;DHT22;2702;51.014;7.170;2022-12-08T17:14:56;4.00;99.90
5358;DHT22;2702;51.014;7.170;2022-12-08T17:17:22;4.10;99.90
5358;DHT22;2702;51.014;7.170;2022-12-08T17:19:47;4.20;99.90
5358;DHT22;2702;51.014;7.170;2022-12-08T17:22:13;4.10;99.90
5358;DHT22;2702;51.014;7.170;2022-12-08T17:24:39;4.10;99.90
5358;DHT22;2702;51.014;7.170;2022-12-08T17:27:05;4.20;99.90
5358;DHT22;2702;51.014;7.170;2022-12-08T17:29:32;4.00;99.90
5358;DHT22;2702;51.014;7.170;2022-12-08T17:31:58;4.00;99.90
5358;DHT22;2702;51.014;7.170;2022-12-08T17:34:24;4.10;99.90
5358;DHT22;2702;51.014;7.170;2022-12-08T17:36:50;4.20;99.90
5358;DHT22;2702;51.014;7.170;2022-12-08T17:39:16;4.10;99.90
5358;DHT22;2702;51.014;7.170;2022-12-08T17:41:42;4.10;99.90
5358;DHT22;2702;51.014;7.170;2022-12-08T17:44:13;4.30;99.90
5358;DHT22;2702;51.014;7.170;2022-12-08T17:46:40;4.20;99.90
5358;DHT22;2702;51.014;7.170;2022-12-08T17:49:09;4.20;99.90
5358;DHT22;2702;51.014;7.170;2022-12-08T17:51:35;4.30;99.90
5358;DHT22;2702;51.014;7.170;2022-12-08T17:54:00;4.10;99.90
5358;DHT22;2702;51.014;7.170;2022-12-08T17:56:26;4.20;99.90
5358;DHT22;2702;51.014;7.170;2022-12-08T17:58:52;4.20;99.90
5358;DHT22;2702;51.014;7.170;2022-12-08T18:01:18;4.20;99.90
5358;DHT22;2702;51.014;7.170;2022-12-08T18:03:44;4.20;99.90
5358;DHT22;2702;51.014;7.170;2022-12-08T18:06:10;4.20;99.90
5358;DHT22;2702;51.014;7.170;2022-12-08T18:08:37;4.20;99.90
5358;DHT22;2702;51.014;7.170;2022-12-08T18:11:04;4.30;99.90
5358;DHT22;2702;51.014;7.170;2022-12-08T18:13:30;4.30;99.90
5358;DHT22;2702;51.014;7.170;2022-12-08T18:15:56;4.30;99.90
5358;DHT22;2702;51.014;7.170;2022-12-08T18:18:22;4.30;99.90